Map

Track Data

SID SEASON NUMBER BASIN SUBBASIN NAME ISO_TIME NATURE LAT LON WMO_WIND WMO_PRES WMO_AGENCY TRACK_TYPE DIST2LAND LANDFALL IFLAG USA_AGENCY USA_ATCF_ID USA_LAT USA_LON USA_RECORD USA_STATUS USA_WIND USA_PRES USA_SSHS USA_R34_NE USA_R34_SE USA_R34_SW USA_R34_NW USA_R50_NE USA_R50_SE USA_R50_SW USA_R50_NW USA_R64_NE USA_R64_SE USA_R64_SW USA_R64_NW USA_POCI USA_ROCI USA_RMW USA_EYE TOKYO_LAT TOKYO_LON TOKYO_GRADE TOKYO_WIND TOKYO_PRES TOKYO_R50_DIR TOKYO_R50_LONG TOKYO_R50_SHORT TOKYO_R30_DIR TOKYO_R30_LONG TOKYO_R30_SHORT TOKYO_LAND CMA_LAT CMA_LON CMA_CAT CMA_WIND CMA_PRES HKO_LAT HKO_LON HKO_CAT HKO_WIND HKO_PRES NEWDELHI_LAT NEWDELHI_LON NEWDELHI_GRADE NEWDELHI_WIND NEWDELHI_PRES NEWDELHI_CI NEWDELHI_DP NEWDELHI_POCI REUNION_LAT REUNION_LON REUNION_TYPE REUNION_WIND REUNION_PRES REUNION_TNUM REUNION_CI REUNION_RMW REUNION_R34_NE REUNION_R34_SE REUNION_R34_SW REUNION_R34_NW REUNION_R50_NE REUNION_R50_SE REUNION_R50_SW REUNION_R50_NW REUNION_R64_NE REUNION_R64_SE REUNION_R64_SW REUNION_R64_NW BOM_LAT BOM_LON BOM_TYPE BOM_WIND BOM_PRES BOM_TNUM BOM_CI BOM_RMW BOM_R34_NE BOM_R34_SE BOM_R34_SW BOM_R34_NW BOM_R50_NE BOM_R50_SE BOM_R50_SW BOM_R50_NW BOM_R64_NE BOM_R64_SE BOM_R64_SW BOM_R64_NW BOM_ROCI BOM_POCI BOM_EYE BOM_POS_METHOD BOM_PRES_METHOD NADI_LAT NADI_LON NADI_CAT NADI_WIND NADI_PRES WELLINGTON_LAT WELLINGTON_LON WELLINGTON_WIND WELLINGTON_PRES DS824_LAT DS824_LON DS824_STAGE DS824_WIND DS824_PRES TD9636_LAT TD9636_LON TD9636_STAGE TD9636_WIND TD9636_PRES TD9635_LAT TD9635_LON TD9635_WIND TD9635_PRES TD9635_ROCI NEUMANN_LAT NEUMANN_LON NEUMANN_CLASS NEUMANN_WIND NEUMANN_PRES MLC_LAT MLC_LON MLC_CLASS MLC_WIND MLC_PRES USA_GUST BOM_GUST BOM_GUST_PER REUNION_GUST REUNION_GUST_PER USA_SEAHGT USA_SEARAD_NE USA_SEARAD_SE USA_SEARAD_SW USA_SEARAD_NW STORM_SPEED STORM_DIR
1943052S19115 1943 19 SI WA NOT_NAMED 1943-02-21 06:00:00 NR -19.1000 115.200 main 226 212 _____O________ -1 -19.1000 115.200 99 9.90000 4 205
1943052S19115 1943 19 SI WA NOT_NAMED 1943-02-21 09:00:00 NR -19.2963 115.109 main 212 200 _____P________ -1 -19.2963 115.109 99 4 204
1943052S19115 1943 19 SI WA NOT_NAMED 1943-02-21 12:00:00 NR -19.4906 115.018 main 200 188 _____P________ -1 -19.4906 115.018 99 4 204
1943052S19115 1943 19 SI WA NOT_NAMED 1943-02-21 15:00:00 NR -19.6809 114.924 main 188 176 _____P________ -1 -19.6809 114.924 99 4 206
1943052S19115 1943 19 SI WA NOT_NAMED 1943-02-21 18:00:00 NR -19.8650 114.828 main 176 168 _____P________ -1 -19.8650 114.828 99 4 207
1943052S19115 1943 19 SI WA NOT_NAMED 1943-02-21 21:00:00 NR -20.0410 114.729 main 175 159 _____P________ -1 -20.0410 114.729 99 4 209
1943052S19115 1943 19 SI WA NOT_NAMED 1943-02-22 00:00:00 NR -20.2068 114.624 main 167 151 _____P________ -1 -20.2068 114.624 99 4 212
1943052S19115 1943 19 SI WA NOT_NAMED 1943-02-22 03:00:00 NR -20.3605 114.515 main 151 143 _____P________ -1 -20.3605 114.515 99 4 216
1943052S19115 1943 19 SI WA NOT_NAMED 1943-02-22 06:00:00 NR -20.5000 114.400 main 143 133 _____O________ -1 -20.5000 114.400 99 9.90000 3 220
1943052S19115 1943 19 SI WA NOT_NAMED 1943-02-22 09:00:00 NR -20.6241 114.279 main 137 126 _____P________ -1 -20.6241 114.279 99 3 224
1943052S19115 1943 19 SI WA NOT_NAMED 1943-02-22 12:00:00 NR -20.7351 114.154 main 129 123 _____P________ -1 -20.7351 114.154 99 3 228
1943052S19115 1943 19 SI WA NOT_NAMED 1943-02-22 15:00:00 NR -20.8361 114.028 main 123 111 _____P________ -1 -20.8361 114.028 99 3 230
1943052S19115 1943 19 SI WA NOT_NAMED 1943-02-22 18:00:00 NR -20.9302 113.905 main 112 101 _____P________ -1 -20.9302 113.905 99 3 231
1943052S19115 1943 19 SI WA NOT_NAMED 1943-02-22 21:00:00 NR -21.0205 113.787 main 102 94 _____P________ -1 -21.0205 113.787 99 3 229
1943052S19115 1943 19 SI WA NOT_NAMED 1943-02-23 00:00:00 NR -21.1102 113.679 main 94 88 _____P________ -1 -21.1102 113.679 99 3 226
1943052S19115 1943 19 SI WA NOT_NAMED 1943-02-23 03:00:00 NR -21.2023 113.582 main 88 84 _____P________ -1 -21.2023 113.582 99 3 221
1943052S19115 1943 19 SI WA NOT_NAMED 1943-02-23 06:00:00 NR -21.3000 113.500 main 84 76 _____O________ -1 -21.3000 113.500 99 9.90000 3 217
1943052S19115 1943 19 SI WA NOT_NAMED 1943-02-23 09:00:00 NR -21.4041 113.420 main 83 76 _____P________ -1 -21.4041 113.420 99 3 213
1943052S19115 1943 19 SI WA NOT_NAMED 1943-02-23 12:00:00 NR -21.5110 113.351 main 76 76 _____P________ -1 -21.5110 113.351 99 2 207
1943052S19115 1943 19 SI WA NOT_NAMED 1943-02-23 15:00:00 NR -21.6223 113.297 main 79 75 _____P________ -1 -21.6223 113.297 99 2 200
1943052S19115 1943 19 SI WA NOT_NAMED 1943-02-23 18:00:00 NR -21.7396 113.258 main 75 70 _____P________ -1 -21.7396 113.258 99 2 191
1943052S19115 1943 19 SI WA NOT_NAMED 1943-02-23 21:00:00 NR -21.8644 113.237 main 75 70 _____P________ -1 -21.8644 113.237 99 3 184
1943052S19115 1943 19 SI WA NOT_NAMED 1943-02-24 00:00:00 NR -21.9984 113.236 main 70 56 _____P________ -1 -21.9984 113.236 99 3 175
1943052S19115 1943 19 SI WA NOT_NAMED 1943-02-24 03:00:00 NR -22.1431 113.256 main 56 45 _____P________ -1 -22.1431 113.256 99 3 170
1943052S19115 1943 19 SI WA NOT_NAMED 1943-02-24 06:00:00 NR -22.3000 113.300 main 45 23 _____O________ -1 -22.3000 113.300 99 9.90000 4 163
1943052S19115 1943 19 SI WA NOT_NAMED 1943-02-24 09:00:00 NR -22.4856 113.372 main 23 15 _____P________ -1 -22.4856 113.372 99 4 158
1943052S19115 1943 19 SI WA NOT_NAMED 1943-02-24 12:00:00 NR -22.6856 113.471 main 15 15 _____P________ -1 -22.6856 113.471 99 5 154
1943052S19115 1943 19 SI WA NOT_NAMED 1943-02-24 15:00:00 NR -22.8948 113.589 main 20 10 _____P________ -1 -22.8948 113.589 99 5 151
1943052S19115 1943 19 SI WA NOT_NAMED 1943-02-24 18:00:00 NR -23.1080 113.723 main 10 0 _____P________ -1 -23.1080 113.723 99 5 149
1943052S19115 1943 19 SI WA NOT_NAMED 1943-02-24 21:00:00 NR -23.3202 113.867 main 0 0 _____P________ -1 -23.3202 113.867 99 5 147
1943052S19115 1943 19 SI WA NOT_NAMED 1943-02-25 00:00:00 NR -23.5263 114.014 main 0 0 _____P________ -1 -23.5263 114.014 99 5 146
1943052S19115 1943 19 SI WA NOT_NAMED 1943-02-25 03:00:00 NR -23.7212 114.161 main 0 0 _____P________ -1 -23.7212 114.161 99 5 145
1943052S19115 1943 19 SI WA NOT_NAMED 1943-02-25 06:00:00 NR -23.9000 114.300 main 0 0 _____O________ -1 -23.9000 114.300 99 9.90000 4 144
1943052S19115 1943 19 SI WA NOT_NAMED 1943-02-25 09:00:00 NR -24.0588 114.428 main 0 0 _____P________ -1 -24.0588 114.428 99 4 143
1943052S19115 1943 19 SI WA NOT_NAMED 1943-02-25 12:00:00 NR -24.1991 114.545 main 0 0 _____P________ -1 -24.1991 114.545 99 3 142
1943052S19115 1943 19 SI WA NOT_NAMED 1943-02-25 15:00:00 NR -24.3235 114.652 main 0 0 _____P________ -1 -24.3235 114.652 99 3 141
1943052S19115 1943 19 SI WA NOT_NAMED 1943-02-25 18:00:00 NR -24.4347 114.751 main 0 0 _____P________ -1 -24.4347 114.751 99 3 140
1943052S19115 1943 19 SI WA NOT_NAMED 1943-02-25 21:00:00 NR -24.5353 114.844 main 0 0 _____P________ -1 -24.5353 114.844 99 3 140
1943052S19115 1943 19 SI WA NOT_NAMED 1943-02-26 00:00:00 NR -24.6279 114.932 main 0 0 _____P________ -1 -24.6279 114.932 99 2 138
1943052S19115 1943 19 SI WA NOT_NAMED 1943-02-26 03:00:00 NR -24.7153 115.017 main 0 0 _____P________ -1 -24.7153 115.017 99 2 138
1943052S19115 1943 19 SI WA NOT_NAMED 1943-02-26 06:00:00 NR -24.8000 115.100 main 0 _____O________ -1 -24.8000 115.100 99 9.90000 2 136

About IBTrACS Database

This database is a web-friendly format of International Best Track Archive for Climate Stewardship (IBTrACS), a global best track data archive curated by NOAA dating back to 1842.

Updated: 2021-10-21